Time;durP1;ratioP1;P1;durP2;ratioP2;P2;SDS_P1;SDS_P2;PMS_P1;PMS_P2;Temp;Humidity;BMP_temperature;BMP_pressure;BME280_temperature;BME280_humidity;BME280_pressure;Samples;Min_cycle;Max_cycle;Signal;HPM_P1;HPM_P2
2023/01/18 00:01:45;;;;;;;;;;;18.00;65.10;;;;;;5022421;28;1231;-74
2023/01/18 00:04:11;;;;;;;;;;;18.00;65.10;;;;;;5020629;28;1326;-75
2023/01/18 00:06:36;;;;;;;;;;;18.00;65.10;;;;;;5020350;28;1255;-75
2023/01/18 00:09:02;;;;;;;;;;;18.00;65.10;;;;;;5018023;28;1347;-75
2023/01/18 00:11:28;;;;;;;;;;;18.00;65.10;;;;;;5018851;28;2001;-73
2023/01/18 00:13:53;;;;;;;;;;;18.00;65.10;;;;;;5017971;28;950;-74
2023/01/18 00:16:19;;;;;;;;;;;18.00;65.10;;;;;;5022471;28;1377;-75
2023/01/18 00:18:54;;;;;;;;;;;18.00;65.10;;;;;;5053282;28;832;-75
2023/01/18 00:21:20;;;;;;;;;;;18.00;65.10;;;;;;5019042;28;804;-74
2023/01/18 00:23:45;;;;;;;;;;;18.00;65.10;;;;;;5020510;28;859;-75
2023/01/18 00:26:11;;;;;;;;;;;18.00;65.10;;;;;;5035713;28;1203;-75
2023/01/18 00:28:37;;;;;;;;;;;18.00;65.10;;;;;;5024602;28;1037;-75
2023/01/18 00:31:13;;;;;;;;;;;18.00;65.10;;;;;;5020074;28;800;-73
2023/01/18 00:33:40;;;;;;;;;;;18.00;65.10;;;;;;5029756;28;2234;-74
2023/01/18 00:36:06;;;;;;;;;;;18.00;65.10;;;;;;5021203;28;1343;-74
2023/01/18 00:38:31;;;;;;;;;;;18.00;65.10;;;;;;5021322;28;859;-75
2023/01/18 00:40:57;;;;;;;;;;;18.00;65.10;;;;;;5022938;28;909;-74
2023/01/18 00:43:37;;;;;;;;;;;18.00;65.10;;;;;;5022448;28;815;-75
2023/01/18 00:46:07;;;;;;;;;;;18.00;65.10;;;;;;5021377;28;1367;-72
2023/01/18 00:48:32;;;;;;;;;;;18.00;65.10;;;;;;5021652;28;844;-75
2023/01/18 00:50:58;;;;;;;;;;;18.00;65.10;;;;;;5018397;28;794;-75
2023/01/18 00:53:23;;;;;;;;;;;18.00;65.20;;;;;;5017836;28;1930;-74
2023/01/18 00:55:48;;;;;;;;;;;18.00;65.20;;;;;;5022258;28;928;-73
2023/01/18 00:58:14;;;;;;;;;;;18.00;65.20;;;;;;5015902;28;1184;-73
2023/01/18 01:00:40;;;;;;;;;;;18.00;65.20;;;;;;5023752;28;861;-76
2023/01/18 01:03:06;;;;;;;;;;;17.90;66.00;;;;;;5020481;28;784;-73
2023/01/18 01:08:20;;;;;;;;;;;17.90;65.20;;;;;;5048279;28;1418;-73
2023/01/18 01:10:46;;;;;;;;;;;17.90;65.20;;;;;;5028763;28;1828;-73
2023/01/18 01:26:53;;;;;;;;;;;17.90;65.20;;;;;;5020308;28;1397;-73
2023/01/18 01:29:19;;;;;;;;;;;17.90;65.20;;;;;;5021027;28;847;-73
2023/01/18 01:31:44;;;;;;;;;;;17.90;65.20;;;;;;5023897;28;1959;-73
2023/01/18 01:34:09;;;;;;;;;;;17.90;65.20;;;;;;5052551;28;923;-72
2023/01/18 01:36:35;;;;;;;;;;;18.00;65.30;;;;;;5023720;28;1244;-73
2023/01/18 01:39:05;;;;;;;;;;;17.90;65.30;;;;;;5029215;28;1038;-73
2023/01/18 01:41:31;;;;;;;;;;;17.90;65.20;;;;;;5022466;28;975;-74
2023/01/18 01:43:57;;;;;;;;;;;18.00;65.30;;;;;;5030204;28;1274;-73
2023/01/18 01:46:24;;;;;;;;;;;17.90;65.30;;;;;;5037927;28;1796;-76
2023/01/18 01:48:50;;;;;;;;;;;17.90;65.20;;;;;;5029143;28;1397;-74
2023/01/18 01:51:16;;;;;;;;;;;17.90;65.30;;;;;;5039245;28;2505;-74
2023/01/18 01:53:41;;;;;;;;;;;17.90;65.30;;;;;;5052437;28;1965;-74
2023/01/18 01:56:07;;;;;;;;;;;17.90;65.30;;;;;;5016651;28;1218;-73
2023/01/18 01:58:33;;;;;;;;;;;17.90;65.30;;;;;;5017865;28;866;-74
2023/01/18 02:00:58;;;;;;;;;;;17.90;65.30;;;;;;5040391;28;1497;-73
2023/01/18 02:03:24;;;;;;;;;;;17.90;65.30;;;;;;5017988;28;1243;-72
2023/01/18 02:05:50;;;;;;;;;;;17.90;65.30;;;;;;5051728;28;982;-73
2023/01/18 02:08:21;;;;;;;;;;;17.90;65.30;;;;;;5016072;28;1300;-72
2023/01/18 02:10:47;;;;;;;;;;;17.90;65.30;;;;;;5026625;28;864;-73
2023/01/18 02:13:12;;;;;;;;;;;17.90;65.30;;;;;;5018475;28;1914;-72
2023/01/18 02:15:47;;;;;;;;;;;17.90;65.30;;;;;;5018969;28;963;-74
2023/01/18 02:18:14;;;;;;;;;;;17.90;65.30;;;;;;5017093;28;1279;-72
2023/01/18 02:21:18;;;;;;;;;;;17.90;65.40;;;;;;5033430;28;832;-75
2023/01/18 02:23:46;;;;;;;;;;;17.90;65.30;;;;;;5006370;28;1513;-74
2023/01/18 02:26:30;;;;;;;;;;;17.90;65.30;;;;;;4990265;28;1336;-74
2023/01/18 02:28:58;;;;;;;;;;;17.90;65.40;;;;;;5007540;28;1142;-74
2023/01/18 02:31:27;;;;;;;;;;;17.90;65.30;;;;;;5052177;28;875;-73
2023/01/18 02:33:53;;;;;;;;;;;17.90;65.30;;;;;;5054353;28;1894;-73
2023/01/18 02:36:33;;;;;;;;;;;17.90;65.30;;;;;;5015988;28;1386;-74
2023/01/18 02:39:01;;;;;;;;;;;17.90;65.30;;;;;;5052938;28;1081;-74
2023/01/18 02:47:00;;;;;;;;;;;17.90;65.40;;;;;;5031918;28;1372;-74
2023/01/18 02:49:30;;;;;;;;;;;17.90;65.40;;;;;;5004455;28;1400;-73
2023/01/18 02:52:06;;;;;;;;;;;17.90;65.30;;;;;;5016855;28;1973;-74
2023/01/18 02:54:33;;;;;;;;;;;17.90;65.40;;;;;;5032804;28;890;-74
2023/01/18 02:56:58;;;;;;;;;;;17.90;65.40;;;;;;5033468;28;1299;-74
2023/01/18 02:59:28;;;;;;;;;;;17.90;65.40;;;;;;5053918;28;855;-74
2023/01/18 03:01:54;;;;;;;;;;;17.90;65.40;;;;;;5016449;28;1302;-74
2023/01/18 03:04:26;;;;;;;;;;;17.90;65.40;;;;;;5016722;28;1294;-74
2023/01/18 03:06:56;;;;;;;;;;;17.90;65.40;;;;;;5015598;28;1291;-74
2023/01/18 03:09:25;;;;;;;;;;;17.90;65.40;;;;;;5049423;28;856;-74
2023/01/18 03:11:54;;;;;;;;;;;17.90;65.40;;;;;;5026623;28;1977;-75
2023/01/18 03:14:27;;;;;;;;;;;17.90;65.40;;;;;;5021797;28;990;-74
2023/01/18 03:17:02;;;;;;;;;;;17.90;65.40;;;;;;5019234;28;1390;-74
2023/01/18 03:22:16;;;;;;;;;;;17.90;65.60;;;;;;5021086;28;792;-75
2023/01/18 03:24:42;;;;;;;;;;;17.90;65.40;;;;;;5049289;28;899;-74
2023/01/18 03:35:25;;;;;;;;;;;17.90;65.40;;;;;;5045156;28;1060;-72
2023/01/18 03:37:53;;;;;;;;;;;17.90;65.50;;;;;;5016360;28;1272;-72
2023/01/18 03:40:19;;;;;;;;;;;17.80;65.40;;;;;;5022111;28;851;-72
2023/01/18 03:43:05;;;;;;;;;;;17.90;65.50;;;;;;5028690;28;1015;-73
2023/01/18 03:45:31;;;;;;;;;;;17.90;65.40;;;;;;5021758;28;1098;-72
2023/01/18 03:47:56;;;;;;;;;;;17.80;65.40;;;;;;5022696;28;1205;-74
2023/01/18 03:50:23;;;;;;;;;;;17.80;65.40;;;;;;5053723;28;856;-74
2023/01/18 03:52:49;;;;;;;;;;;17.80;65.40;;;;;;5052937;28;1968;-73
2023/01/18 03:55:19;;;;;;;;;;;17.80;65.40;;;;;;5021314;28;1269;-72
2023/01/18 03:57:46;;;;;;;;;;;17.80;65.40;;;;;;5024872;28;1280;-73
2023/01/18 04:00:11;;;;;;;;;;;17.80;65.40;;;;;;5023038;28;1324;-73
2023/01/18 04:02:37;;;;;;;;;;;17.90;65.50;;;;;;5032045;28;951;-74
2023/01/18 04:05:03;;;;;;;;;;;17.80;65.40;;;;;;5020471;28;1304;-75
2023/01/18 04:07:30;;;;;;;;;;;17.80;65.40;;;;;;5052106;28;1338;-73
2023/01/18 04:09:56;;;;;;;;;;;17.80;65.40;;;;;;5018306;28;946;-73
2023/01/18 04:12:21;;;;;;;;;;;17.80;65.40;;;;;;5019947;28;1906;-73
2023/01/18 04:14:47;;;;;;;;;;;17.80;65.40;;;;;;5018218;28;879;-73
2023/01/18 04:17:12;;;;;;;;;;;17.80;65.50;;;;;;5020911;28;1220;-73
2023/01/18 04:19:39;;;;;;;;;;;17.80;65.50;;;;;;5023484;28;847;-73
2023/01/18 04:22:05;;;;;;;;;;;17.80;65.50;;;;;;5023754;28;1270;-73
2023/01/18 04:24:30;;;;;;;;;;;17.80;65.40;;;;;;5023365;28;962;-73
2023/01/18 04:26:56;;;;;;;;;;;17.80;65.40;;;;;;5017767;28;1451;-73
2023/01/18 04:29:21;;;;;;;;;;;17.80;65.40;;;;;;5022041;28;812;-72
2023/01/18 04:31:47;;;;;;;;;;;17.80;65.50;;;;;;5022129;28;1961;-73
2023/01/18 04:34:12;;;;;;;;;;;17.80;65.50;;;;;;5019083;28;1291;-73
2023/01/18 04:36:37;;;;;;;;;;;17.80;65.50;;;;;;5018852;28;1247;-72
2023/01/18 04:39:03;;;;;;;;;;;17.80;65.50;;;;;;5020199;28;816;-72
2023/01/18 04:41:28;;;;;;;;;;;17.80;65.50;;;;;;5051103;28;878;-72
2023/01/18 04:43:54;;;;;;;;;;;17.80;65.50;;;;;;5016432;28;871;-72
2023/01/18 04:46:19;;;;;;;;;;;17.80;65.50;;;;;;5017440;28;1277;-74
2023/01/18 04:48:48;;;;;;;;;;;17.80;65.50;;;;;;5018936;28;856;-74
2023/01/18 04:51:14;;;;;;;;;;;17.80;66.30;;;;;;5048779;28;852;-74
2023/01/18 04:53:40;;;;;;;;;;;17.80;65.50;;;;;;5018655;28;1960;-74
2023/01/18 04:56:06;;;;;;;;;;;17.80;65.50;;;;;;5023504;28;1216;-74
2023/01/18 04:58:31;;;;;;;;;;;17.80;65.50;;;;;;5020478;28;1023;-73
2023/01/18 05:00:59;;;;;;;;;;;17.80;65.50;;;;;;5021445;28;1335;-73
2023/01/18 05:03:24;;;;;;;;;;;17.80;65.50;;;;;;5019243;28;884;-72
2023/01/18 05:05:50;;;;;;;;;;;17.80;65.50;;;;;;5019474;28;909;-73
2023/01/18 05:08:16;;;;;;;;;;;17.80;65.50;;;;;;5028114;28;1321;-73
2023/01/18 05:10:41;;;;;;;;;;;17.80;65.50;;;;;;5020337;28;887;-72
2023/01/18 05:13:07;;;;;;;;;;;17.80;65.40;;;;;;5017796;28;1906;-72
2023/01/18 05:15:33;;;;;;;;;;;17.90;65.40;;;;;;5015975;28;916;-72
2023/01/18 05:17:59;;;;;;;;;;;17.90;65.30;;;;;;5019290;28;1279;-72
2023/01/18 05:20:25;;;;;;;;;;;17.90;65.20;;;;;;5021277;28;968;-72
2023/01/18 05:22:50;;;;;;;;;;;18.00;65.10;;;;;;5018566;28;954;-72
2023/01/18 05:25:16;;;;;;;;;;;18.00;64.90;;;;;;5019619;28;991;-74
2023/01/18 05:27:41;;;;;;;;;;;18.10;64.80;;;;;;5025598;28;1273;-74
2023/01/18 05:30:07;;;;;;;;;;;18.10;64.70;;;;;;5015855;28;983;-74
2023/01/18 05:32:33;;;;;;;;;;;18.10;64.50;;;;;;5011212;28;1961;-74
2023/01/18 05:34:59;;;;;;;;;;;18.20;64.50;;;;;;5053009;28;1071;-74
2023/01/18 05:37:24;;;;;;;;;;;18.20;64.40;;;;;;5019846;28;1253;-73
2023/01/18 05:39:50;;;;;;;;;;;18.20;65.00;;;;;;5023144;28;870;-74
2023/01/18 05:42:15;;;;;;;;;;;18.20;64.20;;;;;;5018429;28;1151;-74
2023/01/18 05:44:41;;;;;;;;;;;18.20;64.10;;;;;;5018117;28;1458;-74
2023/01/18 05:47:06;;;;;;;;;;;18.20;64.10;;;;;;5021659;28;1359;-73
2023/01/18 05:49:32;;;;;;;;;;;18.30;64.10;;;;;;5020094;28;967;-73
2023/01/18 05:51:57;;;;;;;;;;;18.30;64.10;;;;;;5021259;28;2115;-72
2023/01/18 05:54:23;;;;;;;;;;;18.30;63.90;;;;;;5016229;28;1228;-73
2023/01/18 05:56:48;;;;;;;;;;;18.30;63.90;;;;;;5017141;28;1367;-70
2023/01/18 05:59:14;;;;;;;;;;;18.30;63.90;;;;;;5020748;28;1493;-71
2023/01/18 06:01:40;;;;;;;;;;;18.30;63.80;;;;;;5037060;28;1055;-74
2023/01/18 06:04:05;;;;;;;;;;;18.30;63.70;;;;;;5020461;28;1349;-72
2023/01/18 06:06:31;;;;;;;;;;;18.30;63.70;;;;;;5017159;28;1276;-70
2023/01/18 06:08:56;;;;;;;;;;;18.30;63.60;;;;;;5020458;28;782;-69
2023/01/18 06:11:22;;;;;;;;;;;18.40;63.70;;;;;;5018826;28;957;-71
2023/01/18 06:13:47;;;;;;;;;;;18.40;63.70;;;;;;5017675;28;4934;-71
2023/01/18 06:16:13;;;;;;;;;;;18.40;63.60;;;;;;5016497;28;4334;-70
2023/01/18 06:18:40;;;;;;;;;;;18.40;63.60;;;;;;5028343;28;4332;-69
2023/01/18 06:21:06;;;;;;;;;;;18.40;63.60;;;;;;5020224;28;864;-72
2023/01/18 06:23:32;;;;;;;;;;;18.40;63.60;;;;;;5017302;28;1003;-74
2023/01/18 06:25:57;;;;;;;;;;;18.40;63.50;;;;;;5047578;28;1187;-73
2023/01/18 06:28:23;;;;;;;;;;;18.40;63.50;;;;;;5016239;28;1259;-75
2023/01/18 06:30:51;;;;;;;;;;;18.40;63.50;;;;;;5015940;28;909;-75
2023/01/18 06:33:16;;;;;;;;;;;18.40;63.50;;;;;;5017567;28;1910;-74
2023/01/18 06:35:42;;;;;;;;;;;18.40;63.50;;;;;;5018442;28;1294;-74
2023/01/18 06:38:08;;;;;;;;;;;18.40;63.50;;;;;;5053373;28;1283;-74
2023/01/18 06:40:33;;;;;;;;;;;18.40;63.50;;;;;;5049859;28;903;-74
2023/01/18 06:42:58;;;;;;;;;;;18.40;63.50;;;;;;5018485;28;872;-74
2023/01/18 06:45:24;;;;;;;;;;;18.40;63.40;;;;;;5021688;28;1241;-74
2023/01/18 06:47:50;;;;;;;;;;;18.40;63.50;;;;;;5019087;28;1245;-70
2023/01/18 06:50:16;;;;;;;;;;;18.40;63.50;;;;;;5050400;28;946;-69
2023/01/18 06:52:42;;;;;;;;;;;18.40;63.50;;;;;;5017158;28;1965;-69
2023/01/18 06:55:08;;;;;;;;;;;18.40;64.20;;;;;;5024422;28;1686;-69
2023/01/18 06:57:34;;;;;;;;;;;18.40;63.50;;;;;;5033039;28;1249;-72
2023/01/18 07:00:00;;;;;;;;;;;18.40;63.50;;;;;;5018592;28;1277;-73
2023/01/18 07:02:27;;;;;;;;;;;18.40;63.50;;;;;;5026053;28;1198;-73
2023/01/18 07:04:53;;;;;;;;;;;18.40;63.50;;;;;;5048829;28;1349;-72
2023/01/18 07:07:18;;;;;;;;;;;18.40;63.50;;;;;;5017750;28;1264;-73
2023/01/18 07:09:44;;;;;;;;;;;18.40;63.50;;;;;;5018351;28;830;-71
2023/01/18 07:12:09;;;;;;;;;;;18.40;63.50;;;;;;5020046;28;1902;-69
2023/01/18 07:14:35;;;;;;;;;;;18.40;63.60;;;;;;5023402;28;938;-70
2023/01/18 07:17:00;;;;;;;;;;;18.40;63.60;;;;;;5026042;28;1357;-72
2023/01/18 07:19:26;;;;;;;;;;;18.30;63.60;;;;;;5021762;28;947;-72
2023/01/18 07:21:52;;;;;;;;;;;18.40;63.60;;;;;;5021623;28;789;-70
2023/01/18 07:24:18;;;;;;;;;;;18.30;63.60;;;;;;5023868;28;847;-71
2023/01/18 07:26:43;;;;;;;;;;;18.30;63.60;;;;;;5021663;28;1273;-72
2023/01/18 07:29:09;;;;;;;;;;;18.30;63.60;;;;;;5021849;28;967;-73
2023/01/18 07:31:37;;;;;;;;;;;18.30;63.60;;;;;;5021871;28;903;-73
2023/01/18 07:34:02;;;;;;;;;;;18.30;63.60;;;;;;5018940;28;1902;-73
2023/01/18 07:36:28;;;;;;;;;;;18.30;63.70;;;;;;5021643;28;1289;-73
2023/01/18 07:38:53;;;;;;;;;;;18.30;63.70;;;;;;5051951;28;935;-73
2023/01/18 07:41:19;;;;;;;;;;;18.30;63.70;;;;;;5023054;28;997;-74
2023/01/18 07:43:44;;;;;;;;;;;18.30;63.80;;;;;;5045197;28;1351;-74
2023/01/18 07:46:11;;;;;;;;;;;18.30;63.80;;;;;;5053994;28;1381;-73
2023/01/18 07:48:36;;;;;;;;;;;18.30;64.00;;;;;;5023238;28;1069;-72
2023/01/18 07:51:02;;;;;;;;;;;18.30;63.90;;;;;;5018190;28;867;-73
2023/01/18 07:53:28;;;;;;;;;;;18.30;63.90;;;;;;5054267;28;1906;-73
2023/01/18 07:55:54;;;;;;;;;;;18.30;63.90;;;;;;5056779;28;854;-73
2023/01/18 07:58:20;;;;;;;;;;;18.20;63.90;;;;;;5054534;28;1303;-73
2023/01/18 08:00:45;;;;;;;;;;;18.20;64.00;;;;;;5024868;28;1372;-73
2023/01/18 08:03:14;;;;;;;;;;;18.20;64.00;;;;;;5021689;28;921;-72
2023/01/18 08:05:41;;;;;;;;;;;18.20;64.00;;;;;;5020503;28;913;-71
2023/01/18 08:08:08;;;;;;;;;;;18.20;64.10;;;;;;5052757;28;1372;-71
2023/01/18 08:10:33;;;;;;;;;;;18.20;64.10;;;;;;5035624;28;832;-74
2023/01/18 08:12:58;;;;;;;;;;;18.20;64.10;;;;;;5017663;28;1977;-73
2023/01/18 08:15:24;;;;;;;;;;;18.20;64.20;;;;;;5023042;28;931;-73
2023/01/18 08:17:50;;;;;;;;;;;18.20;64.20;;;;;;5024163;28;1212;-73
2023/01/18 08:20:15;;;;;;;;;;;18.20;64.20;;;;;;5019350;28;824;-73
2023/01/18 08:22:41;;;;;;;;;;;18.20;64.20;;;;;;5026911;28;802;-73
2023/01/18 08:25:06;;;;;;;;;;;18.20;64.20;;;;;;5034823;28;1183;-73
2023/01/18 08:27:32;;;;;;;;;;;18.20;64.20;;;;;;5021264;28;1309;-73
2023/01/18 08:29:57;;;;;;;;;;;18.20;64.10;;;;;;5021954;28;803;-73
2023/01/18 08:32:23;;;;;;;;;;;18.20;64.20;;;;;;5021715;28;2002;-73
2023/01/18 08:34:48;;;;;;;;;;;18.20;64.10;;;;;;5021093;28;921;-73
2023/01/18 08:37:15;;;;;;;;;;;18.20;64.10;;;;;;5023514;28;1278;-73
2023/01/18 08:39:40;;;;;;;;;;;18.20;64.00;;;;;;5021478;28;911;-73
2023/01/18 08:42:06;;;;;;;;;;;18.20;64.00;;;;;;5023084;28;870;-73
2023/01/18 08:44:31;;;;;;;;;;;18.20;64.00;;;;;;5054014;28;887;-73
2023/01/18 08:46:57;;;;;;;;;;;18.20;64.00;;;;;;5021776;28;1354;-73
2023/01/18 08:49:22;;;;;;;;;;;18.20;64.00;;;;;;5023860;28;794;-73
2023/01/18 08:51:47;;;;;;;;;;;18.30;64.00;;;;;;5019837;28;919;-73
2023/01/18 08:54:13;;;;;;;;;;;18.30;64.00;;;;;;5020632;28;864;-73
2023/01/18 08:56:38;;;;;;;;;;;18.30;63.90;;;;;;5020286;28;1221;-73
2023/01/18 08:59:07;;;;;;;;;;;18.30;63.90;;;;;;5024012;28;885;-73
2023/01/18 09:01:32;;;;;;;;;;;18.30;63.90;;;;;;5018252;28;895;-73
2023/01/18 09:03:58;;;;;;;;;;;18.30;63.90;;;;;;5019811;28;1329;-73
2023/01/18 09:06:23;;;;;;;;;;;18.30;63.80;;;;;;5027526;28;1374;-73
2023/01/18 09:08:49;;;;;;;;;;;18.30;63.80;;;;;;5018040;28;846;-73
2023/01/18 09:11:15;;;;;;;;;;;18.30;63.80;;;;;;5018456;28;864;-73
2023/01/18 09:13:40;;;;;;;;;;;18.30;63.80;;;;;;5021215;28;1902;-73
2023/01/18 09:16:06;;;;;;;;;;;18.30;63.80;;;;;;5019843;28;1241;-72
2023/01/18 09:18:32;;;;;;;;;;;18.30;63.70;;;;;;5033084;28;931;-73
2023/01/18 09:20:57;;;;;;;;;;;18.30;63.70;;;;;;5020575;28;1612;-73
2023/01/18 09:23:23;;;;;;;;;;;18.30;63.70;;;;;;5032369;28;1070;-73
2023/01/18 09:25:58;;;;;;;;;;;18.30;63.70;;;;;;5021863;28;1089;-73
2023/01/18 09:28:24;;;;;;;;;;;18.30;63.60;;;;;;5035217;28;1282;-73
2023/01/18 09:30:49;;;;;;;;;;;18.30;63.60;;;;;;5021768;28;1380;-73
2023/01/18 09:33:15;;;;;;;;;;;18.30;63.60;;;;;;5020634;28;1957;-74
2023/01/18 09:35:40;;;;;;;;;;;18.40;63.60;;;;;;5026339;28;1386;-73
2023/01/18 09:38:08;;;;;;;;;;;18.30;63.60;;;;;;5020279;28;1277;-73
2023/01/18 09:40:43;;;;;;;;;;;18.40;63.60;;;;;;5017509;28;852;-73
2023/01/18 09:43:38;;;;;;;;;;;18.40;63.60;;;;;;5018863;28;1016;-73
2023/01/18 09:46:04;;;;;;;;;;;18.40;63.50;;;;;;5019570;28;1281;-73
2023/01/18 09:48:37;;;;;;;;;;;18.40;63.50;;;;;;5018218;28;923;-73
2023/01/18 09:51:14;;;;;;;;;;;18.40;63.50;;;;;;5020282;28;874;-74
2023/01/18 09:53:42;;;;;;;;;;;18.40;63.40;;;;;;5051362;28;1887;-73
2023/01/18 09:56:26;;;;;;;;;;;18.40;63.40;;;;;;5019020;28;1370;-73
2023/01/18 09:59:10;;;;;;;;;;;18.40;63.40;;;;;;5051049;28;2061;-74
2023/01/18 10:01:36;;;;;;;;;;;18.40;63.40;;;;;;5022712;28;1827;-74
2023/01/18 10:04:07;;;;;;;;;;;18.40;63.30;;;;;;5022303;28;1227;-74
2023/01/18 10:06:42;;;;;;;;;;;18.40;63.30;;;;;;5019939;28;1266;-74
2023/01/18 10:09:11;;;;;;;;;;;18.40;63.30;;;;;;5018034;28;887;-74
2023/01/18 10:11:37;;;;;;;;;;;18.50;63.40;;;;;;5022769;28;860;-74
2023/01/18 10:14:07;;;;;;;;;;;18.50;63.30;;;;;;5016941;28;1871;-76
2023/01/18 10:16:33;;;;;;;;;;;18.50;63.30;;;;;;5023534;28;1347;-75
2023/01/18 10:19:00;;;;;;;;;;;18.50;63.20;;;;;;5041762;28;1247;-73
2023/01/18 10:21:41;;;;;;;;;;;18.50;63.20;;;;;;5048692;28;855;-73
2023/01/18 10:24:16;;;;;;;;;;;18.50;63.30;;;;;;5050153;28;1221;-75
2023/01/18 10:26:43;;;;;;;;;;;18.50;63.20;;;;;;5017033;28;1285;-73
2023/01/18 10:29:16;;;;;;;;;;;18.50;63.30;;;;;;5047270;28;844;-73
2023/01/18 10:31:47;;;;;;;;;;;18.50;63.20;;;;;;5051020;28;903;-74
2023/01/18 10:34:17;;;;;;;;;;;18.50;63.20;;;;;;5020823;28;1890;-71
2023/01/18 10:36:43;;;;;;;;;;;18.50;63.30;;;;;;5025591;28;1283;-73
2023/01/18 10:39:20;;;;;;;;;;;18.50;63.20;;;;;;5052265;28;998;-74
2023/01/18 10:41:46;;;;;;;;;;;18.50;63.20;;;;;;5053365;28;1355;-72
2023/01/18 10:44:11;;;;;;;;;;;18.40;63.20;;;;;;5050090;28;1121;-76
2023/01/18 10:46:37;;;;;;;;;;;18.50;63.30;;;;;;5020232;28;1283;-75
2023/01/18 10:49:03;;;;;;;;;;;18.50;63.40;;;;;;5022533;28;874;-73
2023/01/18 10:51:30;;;;;;;;;;;18.40;63.30;;;;;;5040876;28;1236;-73
2023/01/18 10:53:56;;;;;;;;;;;18.40;63.40;;;;;;5026927;28;1902;-75
2023/01/18 10:56:23;;;;;;;;;;;18.40;63.40;;;;;;5024213;28;1364;-75
2023/01/18 10:58:53;;;;;;;;;;;18.40;63.50;;;;;;5055577;28;795;-75
2023/01/18 11:01:21;;;;;;;;;;;18.40;63.50;;;;;;5023581;28;1672;-74
2023/01/18 11:03:48;;;;;;;;;;;18.40;63.60;;;;;;5022346;28;1271;-75
2023/01/18 11:06:15;;;;;;;;;;;18.30;63.50;;;;;;5051154;28;1350;-73
2023/01/18 11:08:41;;;;;;;;;;;18.40;63.70;;;;;;5021852;28;848;-73
2023/01/18 11:11:09;;;;;;;;;;;18.30;63.60;;;;;;5057022;28;1258;-72
2023/01/18 11:13:38;;;;;;;;;;;18.30;63.60;;;;;;5021191;28;1965;-74
2023/01/18 11:16:14;;;;;;;;;;;18.30;63.60;;;;;;5024103;28;1256;-74
2023/01/18 11:18:52;;;;;;;;;;;18.30;63.70;;;;;;5055541;28;1930;-73
2023/01/18 11:21:17;;;;;;;;;;;18.30;63.70;;;;;;5019841;28;1838;-73
2023/01/18 11:23:43;;;;;;;;;;;18.30;63.80;;;;;;5053162;28;1473;-75
2023/01/18 11:26:16;;;;;;;;;;;18.30;63.80;;;;;;5024353;28;1368;-75
2023/01/18 11:28:53;;;;;;;;;;;18.30;63.80;;;;;;5050919;28;899;-74
2023/01/18 11:31:20;;;;;;;;;;;18.30;63.90;;;;;;5022886;28;824;-72
2023/01/18 11:33:50;;;;;;;;;;;18.30;63.90;;;;;;5023713;28;1910;-71
2023/01/18 11:36:16;;;;;;;;;;;18.30;63.90;;;;;;5039624;28;1633;-71
2023/01/18 11:38:42;;;;;;;;;;;18.20;63.90;;;;;;5049413;28;2221;-71
2023/01/18 11:41:20;;;;;;;;;;;18.20;63.90;;;;;;5023887;28;1416;-73
2023/01/18 11:43:57;;;;;;;;;;;18.20;64.00;;;;;;5024313;28;1271;-73
2023/01/18 11:46:28;;;;;;;;;;;18.20;64.00;;;;;;5022167;28;2095;-73
2023/01/18 11:49:10;;;;;;;;;;;18.20;64.00;;;;;;5023095;28;1096;-72
2023/01/18 11:51:37;;;;;;;;;;;18.20;64.10;;;;;;5054025;28;1338;-73
2023/01/18 11:54:21;;;;;;;;;;;18.20;64.80;;;;;;5017869;28;1955;-71
2023/01/18 11:56:48;;;;;;;;;;;18.20;64.10;;;;;;5021071;28;1229;-71
2023/01/18 11:59:14;;;;;;;;;;;18.20;64.20;;;;;;5049655;28;799;-71
2023/01/18 12:01:49;;;;;;;;;;;18.20;64.20;;;;;;5025114;28;911;-74
2023/01/18 12:04:22;;;;;;;;;;;18.20;64.20;;;;;;5022167;28;859;-72
2023/01/18 12:07:02;;;;;;;;;;;18.20;64.40;;;;;;5054376;28;1260;-74
2023/01/18 12:09:30;;;;;;;;;;;18.20;64.30;;;;;;5021745;28;847;-74
2023/01/18 12:12:07;;;;;;;;;;;18.10;64.20;;;;;;5051051;28;1914;-73
2023/01/18 12:14:45;;;;;;;;;;;18.10;64.30;;;;;;5056180;28;1643;-74
2023/01/18 12:17:31;;;;;;;;;;;18.10;65.00;;;;;;5021573;28;1225;-73
2023/01/18 12:19:59;;;;;;;;;;;18.10;64.30;;;;;;5018559;28;1050;-74
2023/01/18 12:22:43;;;;;;;;;;;18.10;64.40;;;;;;5021191;28;932;-73
2023/01/18 12:25:09;;;;;;;;;;;18.10;64.40;;;;;;5018840;28;1347;-75
2023/01/18 12:27:34;;;;;;;;;;;18.10;64.40;;;;;;5021217;28;2761;-74
2023/01/18 12:30:03;;;;;;;;;;;18.10;64.50;;;;;;5023801;28;2321;-74
2023/01/18 12:32:39;;;;;;;;;;;18.10;64.50;;;;;;5025735;28;2271;-75
2023/01/18 12:35:13;;;;;;;;;;;18.10;64.50;;;;;;5023205;28;2321;-73
2023/01/18 12:37:48;;;;;;;;;;;18.10;64.50;;;;;;5019216;28;1261;-75
2023/01/18 12:40:20;;;;;;;;;;;18.10;64.60;;;;;;5030000;28;958;-78
2023/01/18 12:42:51;;;;;;;;;;;18.10;64.60;;;;;;5022975;28;873;-73
2023/01/18 12:45:34;;;;;;;;;;;18.10;64.50;;;;;;5021833;28;1288;-73
2023/01/18 12:48:04;;;;;;;;;;;18.10;64.50;;;;;;5038634;28;1397;-73
2023/01/18 12:50:30;;;;;;;;;;;18.10;64.40;;;;;;5050339;28;1269;-74
2023/01/18 12:53:00;;;;;;;;;;;18.10;64.40;;;;;;5023293;28;1906;-72
2023/01/18 12:55:26;;;;;;;;;;;18.20;64.30;;;;;;5016130;28;1338;-70
2023/01/18 12:57:53;;;;;;;;;;;18.20;64.20;;;;;;5019885;28;1254;-71
2023/01/18 13:00:20;;;;;;;;;;;18.20;64.10;;;;;;5051811;28;1264;-72
2023/01/18 13:02:46;;;;;;;;;;;18.20;64.00;;;;;;5018473;28;843;-70
2023/01/18 13:05:33;;;;;;;;;;;18.30;63.90;;;;;;5050137;28;2046;-70
2023/01/18 13:08:08;;;;;;;;;;;18.30;63.80;;;;;;5026141;28;2200;-69
2023/01/18 13:10:34;;;;;;;;;;;18.30;63.70;;;;;;5019229;28;2263;-71
2023/01/18 13:13:00;;;;;;;;;;;18.30;63.60;;;;;;5017054;28;1980;-76
2023/01/18 13:15:38;;;;;;;;;;;18.30;63.60;;;;;;5038719;28;1076;-72
2023/01/18 13:18:06;;;;;;;;;;;18.40;63.60;;;;;;5021250;28;2398;-73
2023/01/18 13:20:53;;;;;;;;;;;18.40;63.60;;;;;;5025728;28;2438;-70
2023/01/18 13:23:45;;;;;;;;;;;18.40;63.50;;;;;;5025955;28;2181;-72
2023/01/18 13:26:28;;;;;;;;;;;18.40;63.40;;;;;;5020637;28;2585;-71
2023/01/18 13:29:09;;;;;;;;;;;18.40;63.40;;;;;;5021726;28;855;-74
2023/01/18 13:31:37;;;;;;;;;;;18.40;63.30;;;;;;5016478;28;832;-70
2023/01/18 13:34:03;;;;;;;;;;;18.40;63.30;;;;;;5028222;28;1942;-72
2023/01/18 13:36:40;;;;;;;;;;;18.40;63.30;;;;;;5051643;28;1360;-72
2023/01/18 13:39:07;;;;;;;;;;;18.40;63.30;;;;;;5049907;28;875;-71
2023/01/18 13:41:33;;;;;;;;;;;18.50;63.40;;;;;;5051116;28;977;-72
2023/01/18 13:44:05;;;;;;;;;;;18.40;63.20;;;;;;5017472;28;821;-72
2023/01/18 13:46:32;;;;;;;;;;;18.40;63.20;;;;;;5050743;28;1391;-72
2023/01/18 13:49:17;;;;;;;;;;;18.40;63.20;;;;;;5050068;28;1329;-69
2023/01/18 13:51:46;;;;;;;;;;;18.50;63.30;;;;;;5018199;28;869;-69
2023/01/18 13:54:15;;;;;;;;;;;18.40;63.20;;;;;;5018443;28;1902;-70
2023/01/18 13:57:03;;;;;;;;;;;18.50;63.30;;;;;;5019030;28;1383;-71
2023/01/18 13:59:31;;;;;;;;;;;18.40;63.20;;;;;;5019525;28;1063;-70
2023/01/18 14:02:17;;;;;;;;;;;18.40;63.20;;;;;;5043597;28;1160;-71
2023/01/18 14:04:43;;;;;;;;;;;18.40;63.30;;;;;;5026768;28;930;-71
2023/01/18 14:07:16;;;;;;;;;;;18.40;63.30;;;;;;5051509;28;1580;-71
2023/01/18 14:09:43;;;;;;;;;;;18.40;63.30;;;;;;5022360;28;1633;-71
2023/01/18 14:12:08;;;;;;;;;;;18.40;63.30;;;;;;5018968;28;1973;-71
2023/01/18 14:14:35;;;;;;;;;;;18.40;63.40;;;;;;5034019;28;883;-71
2023/01/18 14:17:03;;;;;;;;;;;18.40;63.40;;;;;;5027045;28;1364;-71
2023/01/18 14:19:29;;;;;;;;;;;18.40;63.40;;;;;;5018725;28;1265;-71
2023/01/18 14:22:01;;;;;;;;;;;18.40;63.40;;;;;;5026844;28;1338;-71
2023/01/18 14:24:27;;;;;;;;;;;18.40;63.50;;;;;;5020764;28;1081;-71
2023/01/18 14:26:53;;;;;;;;;;;18.40;63.50;;;;;;5027127;28;1405;-71
2023/01/18 14:29:23;;;;;;;;;;;18.30;63.50;;;;;;5020430;28;1628;-74
2023/01/18 14:31:51;;;;;;;;;;;18.30;63.50;;;;;;5023067;28;1263;-73
2023/01/18 14:34:29;;;;;;;;;;;18.40;63.60;;;;;;5041626;28;1953;-70
2023/01/18 14:36:54;;;;;;;;;;;18.30;63.60;;;;;;5020625;28;1390;-70
2023/01/18 14:39:20;;;;;;;;;;;18.30;63.60;;;;;;5016619;28;1160;-69
2023/01/18 14:41:46;;;;;;;;;;;18.30;63.60;;;;;;5020741;28;1774;-71
2023/01/18 14:44:15;;;;;;;;;;;18.30;63.60;;;;;;5054450;28;1355;-69
2023/01/18 14:46:41;;;;;;;;;;;18.30;63.70;;;;;;5053298;28;1453;-68
2023/01/18 14:49:11;;;;;;;;;;;18.30;63.70;;;;;;5051276;28;1307;-68
2023/01/18 14:51:37;;;;;;;;;;;18.30;63.70;;;;;;5019284;28;1883;-69
2023/01/18 14:54:03;;;;;;;;;;;18.30;63.80;;;;;;5021228;28;1914;-69
2023/01/18 14:56:30;;;;;;;;;;;18.30;63.80;;;;;;5020181;28;1360;-69
2023/01/18 14:58:57;;;;;;;;;;;18.30;63.80;;;;;;5018867;28;1275;-69
2023/01/18 15:01:30;;;;;;;;;;;18.30;63.80;;;;;;5023093;28;1364;-70
2023/01/18 15:03:56;;;;;;;;;;;18.30;63.80;;;;;;5000410;28;1341;-70
2023/01/18 15:06:25;;;;;;;;;;;18.20;63.80;;;;;;5015617;28;1352;-70
2023/01/18 15:08:51;;;;;;;;;;;18.20;63.80;;;;;;5050119;28;860;-70
2023/01/18 15:11:16;;;;;;;;;;;18.30;63.90;;;;;;5021391;28;907;-71
2023/01/18 15:13:47;;;;;;;;;;;18.30;63.90;;;;;;5016738;28;1903;-69